sensor_id;sensor_type;location;lat;lon;timestamp;P1;P2;P0
26185;PMS7003;20067;48.764;9.176;2024-01-11T00:01:03;41.00;35.50;21.50
26185;PMS7003;20067;48.764;9.176;2024-01-11T00:03:29;46.50;43.50;24.00
26185;PMS7003;20067;48.764;9.176;2024-01-11T00:05:55;50.50;42.00;22.00
26185;PMS7003;20067;48.764;9.176;2024-01-11T00:08:20;52.00;39.50;24.00
26185;PMS7003;20067;48.764;9.176;2024-01-11T00:10:46;42.00;36.50;20.00
26185;PMS7003;20067;48.764;9.176;2024-01-11T00:13:12;44.50;37.00;24.00
26185;PMS7003;20067;48.764;9.176;2024-01-11T00:15:37;42.00;37.00;20.50
26185;PMS7003;20067;48.764;9.176;2024-01-11T00:18:03;47.50;39.50;24.00
26185;PMS7003;20067;48.764;9.176;2024-01-11T00:20:29;45.00;32.50;18.50
26185;PMS7003;20067;48.764;9.176;2024-01-11T00:22:54;53.00;44.50;25.50
26185;PMS7003;20067;48.764;9.176;2024-01-11T00:25:20;45.50;39.00;23.50
26185;PMS7003;20067;48.764;9.176;2024-01-11T00:27:46;43.50;41.00;24.00
26185;PMS7003;20067;48.764;9.176;2024-01-11T00:30:11;51.00;43.50;20.00
26185;PMS7003;20067;48.764;9.176;2024-01-11T00:32:37;38.50;33.00;18.50
26185;PMS7003;20067;48.764;9.176;2024-01-11T00:35:03;51.00;40.50;21.00
26185;PMS7003;20067;48.764;9.176;2024-01-11T00:37:29;40.50;36.50;22.00
26185;PMS7003;20067;48.764;9.176;2024-01-11T00:39:54;46.00;38.00;20.50
26185;PMS7003;20067;48.764;9.176;2024-01-11T00:42:20;47.00;37.00;21.00
26185;PMS7003;20067;48.764;9.176;2024-01-11T00:44:45;44.50;36.00;20.50
26185;PMS7003;20067;48.764;9.176;2024-01-11T00:47:11;47.50;39.00;22.00
26185;PMS7003;20067;48.764;9.176;2024-01-11T00:49:37;40.50;35.00;19.00
26185;PMS7003;20067;48.764;9.176;2024-01-11T00:52:02;40.00;33.50;19.50
26185;PMS7003;20067;48.764;9.176;2024-01-11T00:54:28;48.00;40.00;25.50
26185;PMS7003;20067;48.764;9.176;2024-01-11T00:56:54;46.50;42.50;25.00
26185;PMS7003;20067;48.764;9.176;2024-01-11T00:59:20;50.50;40.50;23.00
26185;PMS7003;20067;48.764;9.176;2024-01-11T01:01:46;35.00;32.00;20.50
26185;PMS7003;20067;48.764;9.176;2024-01-11T01:04:15;43.50;39.00;19.50
26185;PMS7003;20067;48.764;9.176;2024-01-11T01:06:41;46.00;38.50;21.00
26185;PMS7003;20067;48.764;9.176;2024-01-11T01:09:07;47.50;36.00;20.00
26185;PMS7003;20067;48.764;9.176;2024-01-11T01:11:33;44.00;36.50;19.00
26185;PMS7003;20067;48.764;9.176;2024-01-11T01:13:59;51.00;34.00;20.00
26185;PMS7003;20067;48.764;9.176;2024-01-11T01:16:24;46.50;38.00;20.00
26185;PMS7003;20067;48.764;9.176;2024-01-11T01:18:50;58.00;43.50;26.00
26185;PMS7003;20067;48.764;9.176;2024-01-11T01:21:15;50.50;42.50;24.50
26185;PMS7003;20067;48.764;9.176;2024-01-11T01:23:41;42.00;34.50;17.50
26185;PMS7003;20067;48.764;9.176;2024-01-11T01:26:07;42.50;36.50;20.00
26185;PMS7003;20067;48.764;9.176;2024-01-11T01:28:32;39.00;36.50;23.50
26185;PMS7003;20067;48.764;9.176;2024-01-11T01:30:58;55.00;45.50;24.00
26185;PMS7003;20067;48.764;9.176;2024-01-11T01:33:24;40.50;33.00;19.50
26185;PMS7003;20067;48.764;9.176;2024-01-11T01:35:49;45.50;36.00;22.50
26185;PMS7003;20067;48.764;9.176;2024-01-11T01:38:15;49.00;42.00;26.00
26185;PMS7003;20067;48.764;9.176;2024-01-11T01:40:42;46.50;36.50;21.00
26185;PMS7003;20067;48.764;9.176;2024-01-11T01:43:08;40.50;33.00;18.50
26185;PMS7003;20067;48.764;9.176;2024-01-11T01:45:37;46.50;39.50;22.50
26185;PMS7003;20067;48.764;9.176;2024-01-11T01:48:03;36.50;35.00;20.00
26185;PMS7003;20067;48.764;9.176;2024-01-11T01:50:30;51.00;37.00;22.00
26185;PMS7003;20067;48.764;9.176;2024-01-11T01:53:01;43.00;33.00;18.00
26185;PMS7003;20067;48.764;9.176;2024-01-11T01:55:28;42.00;34.00;19.50
26185;PMS7003;20067;48.764;9.176;2024-01-11T01:57:54;45.50;39.00;19.00
26185;PMS7003;20067;48.764;9.176;2024-01-11T02:00:22;45.50;39.50;20.00
26185;PMS7003;20067;48.764;9.176;2024-01-11T02:02:50;52.00;40.50;21.50
26185;PMS7003;20067;48.764;9.176;2024-01-11T02:05:17;38.00;33.50;17.00
26185;PMS7003;20067;48.764;9.176;2024-01-11T02:07:44;44.50;38.50;24.00
26185;PMS7003;20067;48.764;9.176;2024-01-11T02:10:10;48.50;37.00;22.00
26185;PMS7003;20067;48.764;9.176;2024-01-11T02:12:36;34.00;32.00;18.50
26185;PMS7003;20067;48.764;9.176;2024-01-11T02:15:04;42.50;34.50;22.00
26185;PMS7003;20067;48.764;9.176;2024-01-11T02:17:30;45.50;33.00;18.00
26185;PMS7003;20067;48.764;9.176;2024-01-11T02:19:56;41.00;34.00;20.50
26185;PMS7003;20067;48.764;9.176;2024-01-11T02:22:24;42.50;34.50;18.00
26185;PMS7003;20067;48.764;9.176;2024-01-11T02:25:03;36.50;30.50;18.50
26185;PMS7003;20067;48.764;9.176;2024-01-11T02:27:29;44.50;38.00;22.50
26185;PMS7003;20067;48.764;9.176;2024-01-11T02:29:55;46.50;39.00;20.00
26185;PMS7003;20067;48.764;9.176;2024-01-11T02:32:20;40.00;37.50;21.50
26185;PMS7003;20067;48.764;9.176;2024-01-11T02:34:47;49.00;37.00;20.00
26185;PMS7003;20067;48.764;9.176;2024-01-11T02:37:13;43.00;38.00;18.00
26185;PMS7003;20067;48.764;9.176;2024-01-11T02:39:39;42.00;37.50;20.50
26185;PMS7003;20067;48.764;9.176;2024-01-11T02:42:05;46.00;35.00;18.50
26185;PMS7003;20067;48.764;9.176;2024-01-11T02:44:31;48.00;41.00;22.00
26185;PMS7003;20067;48.764;9.176;2024-01-11T02:46:56;44.00;36.00;20.00
26185;PMS7003;20067;48.764;9.176;2024-01-11T02:49:22;42.50;35.00;18.50
26185;PMS7003;20067;48.764;9.176;2024-01-11T02:51:47;50.00;40.50;22.00
26185;PMS7003;20067;48.764;9.176;2024-01-11T02:54:13;48.00;36.00;20.50
26185;PMS7003;20067;48.764;9.176;2024-01-11T02:56:39;44.50;37.50;18.50
26185;PMS7003;20067;48.764;9.176;2024-01-11T02:59:04;40.50;34.00;19.00
26185;PMS7003;20067;48.764;9.176;2024-01-11T03:01:30;37.00;35.50;19.50
26185;PMS7003;20067;48.764;9.176;2024-01-11T03:03:56;41.50;35.50;18.50
26185;PMS7003;20067;48.764;9.176;2024-01-11T03:06:22;46.50;33.50;20.00
26185;PMS7003;20067;48.764;9.176;2024-01-11T03:08:48;42.50;31.50;17.00
26185;PMS7003;20067;48.764;9.176;2024-01-11T03:11:14;37.50;33.00;20.50
26185;PMS7003;20067;48.764;9.176;2024-01-11T03:13:41;43.50;36.00;23.50
26185;PMS7003;20067;48.764;9.176;2024-01-11T03:16:06;43.00;32.00;16.50
26185;PMS7003;20067;48.764;9.176;2024-01-11T03:18:32;40.50;30.00;17.00
26185;PMS7003;20067;48.764;9.176;2024-01-11T03:20:58;44.50;36.50;22.00
26185;PMS7003;20067;48.764;9.176;2024-01-11T03:23:23;43.00;37.00;20.00
26185;PMS7003;20067;48.764;9.176;2024-01-11T03:25:49;51.50;40.50;23.00
26185;PMS7003;20067;48.764;9.176;2024-01-11T03:28:15;46.50;33.50;17.50
26185;PMS7003;20067;48.764;9.176;2024-01-11T03:30:40;47.00;37.00;20.00
26185;PMS7003;20067;48.764;9.176;2024-01-11T03:33:06;40.50;32.50;17.50
26185;PMS7003;20067;48.764;9.176;2024-01-11T03:35:32;38.00;36.50;20.50
26185;PMS7003;20067;48.764;9.176;2024-01-11T03:37:57;49.50;41.50;20.50
26185;PMS7003;20067;48.764;9.176;2024-01-11T03:40:23;43.50;35.00;19.50
26185;PMS7003;20067;48.764;9.176;2024-01-11T03:42:48;48.00;32.00;19.00
26185;PMS7003;20067;48.764;9.176;2024-01-11T03:45:17;49.50;36.50;21.00
26185;PMS7003;20067;48.764;9.176;2024-01-11T03:47:44;43.00;37.00;23.00
26185;PMS7003;20067;48.764;9.176;2024-01-11T03:50:10;39.50;32.50;18.00
26185;PMS7003;20067;48.764;9.176;2024-01-11T03:52:36;43.50;36.50;21.50
26185;PMS7003;20067;48.764;9.176;2024-01-11T03:55:01;48.50;40.00;21.00
26185;PMS7003;20067;48.764;9.176;2024-01-11T03:57:27;43.00;41.00;23.50
26185;PMS7003;20067;48.764;9.176;2024-01-11T03:59:52;46.00;36.50;20.00
26185;PMS7003;20067;48.764;9.176;2024-01-11T04:02:18;51.50;41.50;21.00
26185;PMS7003;20067;48.764;9.176;2024-01-11T04:04:44;39.00;35.00;20.00
26185;PMS7003;20067;48.764;9.176;2024-01-11T04:07:10;38.50;32.50;21.00
26185;PMS7003;20067;48.764;9.176;2024-01-11T04:09:39;43.00;38.00;23.00
26185;PMS7003;20067;48.764;9.176;2024-01-11T04:12:05;34.00;32.00;20.00
26185;PMS7003;20067;48.764;9.176;2024-01-11T04:14:31;40.00;36.50;21.50
26185;PMS7003;20067;48.764;9.176;2024-01-11T04:16:56;39.00;36.00;20.50
26185;PMS7003;20067;48.764;9.176;2024-01-11T04:19:22;42.00;32.50;18.00
26185;PMS7003;20067;48.764;9.176;2024-01-11T04:21:48;51.00;35.00;18.00
26185;PMS7003;20067;48.764;9.176;2024-01-11T04:24:15;51.00;34.00;19.50
26185;PMS7003;20067;48.764;9.176;2024-01-11T04:26:41;37.50;33.50;18.00
26185;PMS7003;20067;48.764;9.176;2024-01-11T04:29:07;48.50;42.00;19.00
26185;PMS7003;20067;48.764;9.176;2024-01-11T04:31:33;42.50;41.50;25.00
26185;PMS7003;20067;48.764;9.176;2024-01-11T04:33:58;43.00;38.50;21.00
26185;PMS7003;20067;48.764;9.176;2024-01-11T04:36:24;38.00;32.00;19.50
26185;PMS7003;20067;48.764;9.176;2024-01-11T04:38:50;38.50;34.50;18.50
26185;PMS7003;20067;48.764;9.176;2024-01-11T04:41:15;41.00;32.00;16.00
26185;PMS7003;20067;48.764;9.176;2024-01-11T04:43:44;43.00;36.50;21.00
26185;PMS7003;20067;48.764;9.176;2024-01-11T04:46:16;50.50;40.50;21.00
26185;PMS7003;20067;48.764;9.176;2024-01-11T04:48:43;46.50;39.00;21.50
26185;PMS7003;20067;48.764;9.176;2024-01-11T04:51:09;44.50;35.50;21.00
26185;PMS7003;20067;48.764;9.176;2024-01-11T04:53:45;36.50;32.00;20.00
26185;PMS7003;20067;48.764;9.176;2024-01-11T04:56:11;50.50;39.50;22.50
26185;PMS7003;20067;48.764;9.176;2024-01-11T04:58:39;43.50;33.00;20.00
26185;PMS7003;20067;48.764;9.176;2024-01-11T05:01:06;47.00;38.50;24.00
26185;PMS7003;20067;48.764;9.176;2024-01-11T05:03:32;43.50;33.50;19.50
26185;PMS7003;20067;48.764;9.176;2024-01-11T05:05:58;51.00;43.50;21.00
26185;PMS7003;20067;48.764;9.176;2024-01-11T05:08:27;35.00;32.00;20.00
26185;PMS7003;20067;48.764;9.176;2024-01-11T05:10:53;36.00;34.00;18.50
26185;PMS7003;20067;48.764;9.176;2024-01-11T05:13:18;53.00;38.00;21.00
26185;PMS7003;20067;48.764;9.176;2024-01-11T05:15:44;47.50;40.00;24.00
26185;PMS7003;20067;48.764;9.176;2024-01-11T05:18:10;53.50;40.00;19.50
26185;PMS7003;20067;48.764;9.176;2024-01-11T05:20:37;51.50;39.50;20.00
26185;PMS7003;20067;48.764;9.176;2024-01-11T05:23:02;46.00;38.50;22.00
26185;PMS7003;20067;48.764;9.176;2024-01-11T05:25:29;48.00;39.00;20.00
26185;PMS7003;20067;48.764;9.176;2024-01-11T05:27:58;47.50;39.00;19.50
26185;PMS7003;20067;48.764;9.176;2024-01-11T05:30:24;45.00;39.00;20.50
26185;PMS7003;20067;48.764;9.176;2024-01-11T05:32:50;42.00;40.50;24.50
26185;PMS7003;20067;48.764;9.176;2024-01-11T05:35:16;52.50;40.00;20.00
26185;PMS7003;20067;48.764;9.176;2024-01-11T05:37:41;40.00;32.50;18.00
26185;PMS7003;20067;48.764;9.176;2024-01-11T05:40:07;47.50;36.50;19.50
26185;PMS7003;20067;48.764;9.176;2024-01-11T05:42:33;43.50;38.50;20.00
26185;PMS7003;20067;48.764;9.176;2024-01-11T05:44:59;37.00;31.50;19.50
26185;PMS7003;20067;48.764;9.176;2024-01-11T05:47:24;37.50;33.00;18.00
26185;PMS7003;20067;48.764;9.176;2024-01-11T05:49:50;43.00;36.50;21.50
26185;PMS7003;20067;48.764;9.176;2024-01-11T05:52:16;36.00;31.50;21.00
26185;PMS7003;20067;48.764;9.176;2024-01-11T05:54:42;55.50;41.50;24.00
26185;PMS7003;20067;48.764;9.176;2024-01-11T05:57:08;44.00;36.00;21.00
26185;PMS7003;20067;48.764;9.176;2024-01-11T05:59:33;46.00;38.00;23.00
26185;PMS7003;20067;48.764;9.176;2024-01-11T06:01:59;42.50;32.00;18.50
26185;PMS7003;20067;48.764;9.176;2024-01-11T06:04:26;44.00;35.00;22.00
26185;PMS7003;20067;48.764;9.176;2024-01-11T06:06:52;47.00;37.00;19.00
26185;PMS7003;20067;48.764;9.176;2024-01-11T06:09:18;41.50;39.00;21.50
26185;PMS7003;20067;48.764;9.176;2024-01-11T06:11:43;45.00;38.00;22.50
26185;PMS7003;20067;48.764;9.176;2024-01-11T06:14:09;44.50;42.00;22.00
26185;PMS7003;20067;48.764;9.176;2024-01-11T06:16:35;46.50;41.00;25.00
26185;PMS7003;20067;48.764;9.176;2024-01-11T06:19:01;44.50;38.00;20.00
26185;PMS7003;20067;48.764;9.176;2024-01-11T06:21:27;40.00;35.50;21.50
26185;PMS7003;20067;48.764;9.176;2024-01-11T06:23:53;31.00;30.50;18.00
26185;PMS7003;20067;48.764;9.176;2024-01-11T06:26:19;42.50;36.00;18.50
26185;PMS7003;20067;48.764;9.176;2024-01-11T06:28:44;44.50;34.50;21.00
26185;PMS7003;20067;48.764;9.176;2024-01-11T06:31:10;38.00;31.50;20.50
26185;PMS7003;20067;48.764;9.176;2024-01-11T06:33:37;44.50;37.00;18.50
26185;PMS7003;20067;48.764;9.176;2024-01-11T06:36:04;42.00;39.00;22.00
26185;PMS7003;20067;48.764;9.176;2024-01-11T06:38:31;38.00;34.00;22.00
26185;PMS7003;20067;48.764;9.176;2024-01-11T06:40:56;49.50;39.00;26.00
26185;PMS7003;20067;48.764;9.176;2024-01-11T06:43:22;39.00;34.00;20.00
26185;PMS7003;20067;48.764;9.176;2024-01-11T06:45:48;45.50;38.00;22.00
26185;PMS7003;20067;48.764;9.176;2024-01-11T06:48:13;54.50;41.00;24.00
26185;PMS7003;20067;48.764;9.176;2024-01-11T06:50:39;45.50;38.50;23.50
26185;PMS7003;20067;48.764;9.176;2024-01-11T06:53:05;48.00;41.50;21.50
26185;PMS7003;20067;48.764;9.176;2024-01-11T06:55:30;43.50;41.00;20.50
26185;PMS7003;20067;48.764;9.176;2024-01-11T06:57:56;45.00;36.00;22.00
26185;PMS7003;20067;48.764;9.176;2024-01-11T07:00:22;51.00;39.00;20.50
26185;PMS7003;20067;48.764;9.176;2024-01-11T07:02:48;47.00;39.00;18.00
26185;PMS7003;20067;48.764;9.176;2024-01-11T07:05:14;42.00;35.00;20.50
26185;PMS7003;20067;48.764;9.176;2024-01-11T07:07:40;50.00;39.50;23.50
26185;PMS7003;20067;48.764;9.176;2024-01-11T07:10:06;37.00;26.00;16.00
26185;PMS7003;20067;48.764;9.176;2024-01-11T07:12:33;37.50;34.50;19.50
26185;PMS7003;20067;48.764;9.176;2024-01-11T07:14:58;33.00;31.00;18.00
26185;PMS7003;20067;48.764;9.176;2024-01-11T07:17:24;46.50;40.50;22.50
26185;PMS7003;20067;48.764;9.176;2024-01-11T07:19:50;38.00;37.00;20.50
26185;PMS7003;20067;48.764;9.176;2024-01-11T07:22:15;42.00;34.50;21.00
26185;PMS7003;20067;48.764;9.176;2024-01-11T07:24:41;52.50;40.00;24.00
26185;PMS7003;20067;48.764;9.176;2024-01-11T07:27:07;47.50;36.00;20.50
26185;PMS7003;20067;48.764;9.176;2024-01-11T07:29:33;39.00;35.50;20.00
26185;PMS7003;20067;48.764;9.176;2024-01-11T07:31:59;39.50;38.00;22.00
26185;PMS7003;20067;48.764;9.176;2024-01-11T07:34:25;50.50;44.50;22.00
26185;PMS7003;20067;48.764;9.176;2024-01-11T07:36:52;32.00;31.00;21.00
26185;PMS7003;20067;48.764;9.176;2024-01-11T07:39:18;40.50;37.50;20.00
26185;PMS7003;20067;48.764;9.176;2024-01-11T07:41:44;47.50;43.50;22.50
26185;PMS7003;20067;48.764;9.176;2024-01-11T07:44:09;38.00;33.50;21.50
26185;PMS7003;20067;48.764;9.176;2024-01-11T07:46:35;57.00;48.50;27.00
26185;PMS7003;20067;48.764;9.176;2024-01-11T07:49:01;58.00;50.00;26.00
26185;PMS7003;20067;48.764;9.176;2024-01-11T07:51:27;56.00;50.00;26.00
26185;PMS7003;20067;48.764;9.176;2024-01-11T07:53:53;64.00;48.00;28.00
26185;PMS7003;20067;48.764;9.176;2024-01-11T07:56:19;44.50;41.50;26.00
26185;PMS7003;20067;48.764;9.176;2024-01-11T07:58:44;49.00;41.50;26.00
26185;PMS7003;20067;48.764;9.176;2024-01-11T08:01:11;40.00;36.50;23.00
26185;PMS7003;20067;48.764;9.176;2024-01-11T08:03:37;53.50;45.50;23.50
26185;PMS7003;20067;48.764;9.176;2024-01-11T08:06:03;57.50;45.00;24.00
26185;PMS7003;20067;48.764;9.176;2024-01-11T08:08:32;51.00;40.00;23.00
26185;PMS7003;20067;48.764;9.176;2024-01-11T08:10:58;44.00;36.00;22.00
26185;PMS7003;20067;48.764;9.176;2024-01-11T08:13:24;52.00;38.50;23.00
26185;PMS7003;20067;48.764;9.176;2024-01-11T08:15:49;49.00;41.00;22.50
26185;PMS7003;20067;48.764;9.176;2024-01-11T08:18:17;56.00;50.50;31.00
26185;PMS7003;20067;48.764;9.176;2024-01-11T08:20:43;49.00;45.50;29.00
26185;PMS7003;20067;48.764;9.176;2024-01-11T08:23:09;56.00;52.00;28.50
26185;PMS7003;20067;48.764;9.176;2024-01-11T08:25:35;48.00;45.50;26.50
26185;PMS7003;20067;48.764;9.176;2024-01-11T08:28:00;44.50;42.50;22.50
26185;PMS7003;20067;48.764;9.176;2024-01-11T08:30:28;50.50;46.00;27.00
26185;PMS7003;20067;48.764;9.176;2024-01-11T08:32:54;47.50;41.50;24.50
26185;PMS7003;20067;48.764;9.176;2024-01-11T08:35:20;49.50;39.00;24.00
26185;PMS7003;20067;48.764;9.176;2024-01-11T08:37:46;49.00;42.50;24.00
26185;PMS7003;20067;48.764;9.176;2024-01-11T08:40:12;54.50;46.00;26.50
26185;PMS7003;20067;48.764;9.176;2024-01-11T08:42:38;56.00;42.00;24.50
26185;PMS7003;20067;48.764;9.176;2024-01-11T08:45:06;52.00;42.00;26.50
26185;PMS7003;20067;48.764;9.176;2024-01-11T08:47:34;54.50;45.50;26.00
26185;PMS7003;20067;48.764;9.176;2024-01-11T08:50:00;48.50;42.00;23.50
26185;PMS7003;20067;48.764;9.176;2024-01-11T08:52:31;50.50;41.50;26.50
26185;PMS7003;20067;48.764;9.176;2024-01-11T08:54:57;58.50;46.00;24.50
26185;PMS7003;20067;48.764;9.176;2024-01-11T08:57:22;60.50;51.50;34.00
26185;PMS7003;20067;48.764;9.176;2024-01-11T08:59:48;51.50;46.50;27.50
26185;PMS7003;20067;48.764;9.176;2024-01-11T09:02:14;68.50;53.50;31.50
26185;PMS7003;20067;48.764;9.176;2024-01-11T09:04:39;69.50;60.00;36.00
26185;PMS7003;20067;48.764;9.176;2024-01-11T09:07:05;58.50;51.00;33.50
26185;PMS7003;20067;48.764;9.176;2024-01-11T09:09:30;58.00;45.00;28.00
26185;PMS7003;20067;48.764;9.176;2024-01-11T09:11:56;57.00;47.00;28.50
26185;PMS7003;20067;48.764;9.176;2024-01-11T09:14:21;54.50;48.50;28.50
26185;PMS7003;20067;48.764;9.176;2024-01-11T09:16:47;54.50;47.00;30.00
26185;PMS7003;20067;48.764;9.176;2024-01-11T09:19:14;65.00;49.50;26.00
26185;PMS7003;20067;48.764;9.176;2024-01-11T09:21:39;56.50;52.50;29.00
26185;PMS7003;20067;48.764;9.176;2024-01-11T09:24:07;53.50;47.50;23.50
26185;PMS7003;20067;48.764;9.176;2024-01-11T09:26:33;66.00;56.00;32.00
26185;PMS7003;20067;48.764;9.176;2024-01-11T09:28:58;66.00;50.50;31.50
26185;PMS7003;20067;48.764;9.176;2024-01-11T09:31:24;67.50;55.50;30.00
26185;PMS7003;20067;48.764;9.176;2024-01-11T09:33:50;57.00;43.00;24.50
26185;PMS7003;20067;48.764;9.176;2024-01-11T09:36:16;57.50;50.00;28.50
26185;PMS7003;20067;48.764;9.176;2024-01-11T09:38:41;52.50;46.50;28.00
26185;PMS7003;20067;48.764;9.176;2024-01-11T09:41:08;55.00;53.00;28.50
26185;PMS7003;20067;48.764;9.176;2024-01-11T09:43:36;39.50;36.50;22.50
26185;PMS7003;20067;48.764;9.176;2024-01-11T09:46:03;48.50;40.50;26.50
26185;PMS7003;20067;48.764;9.176;2024-01-11T09:48:33;71.00;59.00;31.50
26185;PMS7003;20067;48.764;9.176;2024-01-11T09:51:03;61.50;44.00;26.50
26185;PMS7003;20067;48.764;9.176;2024-01-11T09:53:33;57.00;47.50;25.00
26185;PMS7003;20067;48.764;9.176;2024-01-11T09:56:01;58.00;52.50;32.00
26185;PMS7003;20067;48.764;9.176;2024-01-11T09:58:30;57.50;49.00;29.50
26185;PMS7003;20067;48.764;9.176;2024-01-11T10:00:58;69.50;53.00;32.00
26185;PMS7003;20067;48.764;9.176;2024-01-11T10:03:24;66.00;49.00;31.00
26185;PMS7003;20067;48.764;9.176;2024-01-11T10:05:51;57.50;52.00;29.50
26185;PMS7003;20067;48.764;9.176;2024-01-11T10:08:22;63.50;54.50;31.50
26185;PMS7003;20067;48.764;9.176;2024-01-11T10:10:49;65.50;56.50;32.50
26185;PMS7003;20067;48.764;9.176;2024-01-11T10:13:15;80.00;58.50;34.00
26185;PMS7003;20067;48.764;9.176;2024-01-11T10:15:41;67.00;57.50;34.00
26185;PMS7003;20067;48.764;9.176;2024-01-11T10:18:08;60.50;49.50;31.00
26185;PMS7003;20067;48.764;9.176;2024-01-11T10:20:33;67.25;58.00;34.00
26185;PMS7003;20067;48.764;9.176;2024-01-11T10:22:59;64.75;58.75;32.50
26185;PMS7003;20067;48.764;9.176;2024-01-11T10:25:26;62.75;57.00;33.50
26185;PMS7003;20067;48.764;9.176;2024-01-11T10:27:52;67.75;53.75;31.00
26185;PMS7003;20067;48.764;9.176;2024-01-11T10:30:17;64.75;56.00;33.75
26185;PMS7003;20067;48.764;9.176;2024-01-11T10:32:45;69.50;59.50;36.25
26185;PMS7003;20067;48.764;9.176;2024-01-11T10:35:12;59.00;55.50;37.50
26185;PMS7003;20067;48.764;9.176;2024-01-11T10:37:38;68.00;61.50;37.00
26185;PMS7003;20067;48.764;9.176;2024-01-11T10:40:05;64.50;60.00;34.00
26185;PMS7003;20067;48.764;9.176;2024-01-11T10:42:39;69.00;55.00;31.50
26185;PMS7003;20067;48.764;9.176;2024-01-11T10:45:15;60.50;55.00;32.00
26185;PMS7003;20067;48.764;9.176;2024-01-11T10:47:45;63.00;55.00;34.50
26185;PMS7003;20067;48.764;9.176;2024-01-11T10:50:16;79.50;64.00;40.00
26185;PMS7003;20067;48.764;9.176;2024-01-11T10:52:54;62.75;54.25;32.25
26185;PMS7003;20067;48.764;9.176;2024-01-11T10:55:21;65.25;56.75;34.75
26185;PMS7003;20067;48.764;9.176;2024-01-11T10:57:48;71.00;58.25;35.25
26185;PMS7003;20067;48.764;9.176;2024-01-11T11:00:15;75.50;59.25;36.50
26185;PMS7003;20067;48.764;9.176;2024-01-11T11:02:43;76.75;58.75;36.75
26185;PMS7003;20067;48.764;9.176;2024-01-11T11:05:11;73.25;60.00;35.50
26185;PMS7003;20067;48.764;9.176;2024-01-11T11:07:40;75.25;59.25;37.00
26185;PMS7003;20067;48.764;9.176;2024-01-11T11:10:07;70.00;57.50;36.00
26185;PMS7003;20067;48.764;9.176;2024-01-11T11:12:35;70.50;57.50;37.25
26185;PMS7003;20067;48.764;9.176;2024-01-11T11:15:03;73.00;57.75;37.75
26185;PMS7003;20067;48.764;9.176;2024-01-11T11:17:31;68.50;55.75;34.50
26185;PMS7003;20067;48.764;9.176;2024-01-11T11:19:56;75.50;57.00;36.00
26185;PMS7003;20067;48.764;9.176;2024-01-11T11:22:22;65.00;57.25;34.50
26185;PMS7003;20067;48.764;9.176;2024-01-11T11:25:02;72.25;58.00;37.25
26185;PMS7003;20067;48.764;9.176;2024-01-11T11:27:30;64.50;56.25;35.25
26185;PMS7003;20067;48.764;9.176;2024-01-11T11:29:56;73.75;58.50;35.00
26185;PMS7003;20067;48.764;9.176;2024-01-11T11:34:56;72.25;57.75;36.75
26185;PMS7003;20067;48.764;9.176;2024-01-11T11:37:23;75.00;61.25;38.00
26185;PMS7003;20067;48.764;9.176;2024-01-11T11:39:49;64.50;55.50;38.00
26185;PMS7003;20067;48.764;9.176;2024-01-11T11:42:33;66.75;55.50;35.00
26185;PMS7003;20067;48.764;9.176;2024-01-11T11:45:01;74.25;58.50;36.25
26185;PMS7003;20067;48.764;9.176;2024-01-11T11:47:40;79.00;56.50;35.75
26185;PMS7003;20067;48.764;9.176;2024-01-11T11:50:23;78.00;63.25;38.00
26185;PMS7003;20067;48.764;9.176;2024-01-11T11:52:53;67.75;53.25;31.75
26185;PMS7003;20067;48.764;9.176;2024-01-11T11:55:26;71.25;58.50;35.25
26185;PMS7003;20067;48.764;9.176;2024-01-11T11:57:52;66.50;55.00;35.25
26185;PMS7003;20067;48.764;9.176;2024-01-11T12:00:18;58.25;54.25;32.75
26185;PMS7003;20067;48.764;9.176;2024-01-11T12:02:46;56.00;46.25;28.25
26185;PMS7003;20067;48.764;9.176;2024-01-11T12:05:12;61.00;52.75;32.75
26185;PMS7003;20067;48.764;9.176;2024-01-11T12:07:38;63.00;54.75;31.00
26185;PMS7003;20067;48.764;9.176;2024-01-11T12:10:05;60.50;55.50;34.00
26185;PMS7003;20067;48.764;9.176;2024-01-11T12:12:31;69.50;58.25;35.25
26185;PMS7003;20067;48.764;9.176;2024-01-11T12:14:59;71.50;58.25;36.75
26185;PMS7003;20067;48.764;9.176;2024-01-11T12:17:25;66.25;57.50;33.50
26185;PMS7003;20067;48.764;9.176;2024-01-11T12:19:51;74.75;62.00;34.75
26185;PMS7003;20067;48.764;9.176;2024-01-11T12:22:17;59.25;53.00;31.75
26185;PMS7003;20067;48.764;9.176;2024-01-11T12:24:43;66.75;56.25;33.75
26185;PMS7003;20067;48.764;9.176;2024-01-11T12:27:08;69.00;59.25;34.00
26185;PMS7003;20067;48.764;9.176;2024-01-11T12:29:34;60.00;55.00;30.50
26185;PMS7003;20067;48.764;9.176;2024-01-11T12:32:00;74.25;58.25;32.25
26185;PMS7003;20067;48.764;9.176;2024-01-11T12:34:26;70.00;53.50;31.00
26185;PMS7003;20067;48.764;9.176;2024-01-11T12:36:53;67.50;57.50;32.50
26185;PMS7003;20067;48.764;9.176;2024-01-11T12:39:20;58.50;47.00;29.50
26185;PMS7003;20067;48.764;9.176;2024-01-11T12:41:48;68.50;61.00;29.50
26185;PMS7003;20067;48.764;9.176;2024-01-11T12:44:16;64.00;54.00;32.00
26185;PMS7003;20067;48.764;9.176;2024-01-11T12:46:43;62.00;48.50;31.50
26185;PMS7003;20067;48.764;9.176;2024-01-11T12:49:12;64.00;53.00;30.50
26185;PMS7003;20067;48.764;9.176;2024-01-11T12:51:37;57.50;55.00;35.50
26185;PMS7003;20067;48.764;9.176;2024-01-11T12:54:04;69.00;55.50;31.50
26185;PMS7003;20067;48.764;9.176;2024-01-11T12:56:45;69.00;52.50;32.50
26185;PMS7003;20067;48.764;9.176;2024-01-11T12:59:11;55.50;49.00;30.00
26185;PMS7003;20067;48.764;9.176;2024-01-11T13:01:40;76.00;60.00;37.00
26185;PMS7003;20067;48.764;9.176;2024-01-11T13:04:07;69.00;61.00;32.00
26185;PMS7003;20067;48.764;9.176;2024-01-11T13:06:34;58.50;48.50;28.50
26185;PMS7003;20067;48.764;9.176;2024-01-11T13:09:00;61.00;55.50;34.00
26185;PMS7003;20067;48.764;9.176;2024-01-11T13:11:27;64.00;53.50;32.50
26185;PMS7003;20067;48.764;9.176;2024-01-11T13:13:54;58.00;55.50;32.00
26185;PMS7003;20067;48.764;9.176;2024-01-11T13:16:20;64.00;58.00;33.00
26185;PMS7003;20067;48.764;9.176;2024-01-11T13:18:46;72.50;55.50;36.00
26185;PMS7003;20067;48.764;9.176;2024-01-11T13:21:12;68.50;48.00;28.00
26185;PMS7003;20067;48.764;9.176;2024-01-11T13:23:38;64.00;56.50;32.00
26185;PMS7003;20067;48.764;9.176;2024-01-11T13:26:05;58.75;50.75;31.75
26185;PMS7003;20067;48.764;9.176;2024-01-11T13:28:31;64.75;52.50;32.00
26185;PMS7003;20067;48.764;9.176;2024-01-11T13:30:58;72.25;61.75;35.25
26185;PMS7003;20067;48.764;9.176;2024-01-11T13:33:24;71.50;55.75;33.75
26185;PMS7003;20067;48.764;9.176;2024-01-11T13:35:50;66.00;51.25;32.75
26185;PMS7003;20067;48.764;9.176;2024-01-11T13:38:16;62.00;53.50;32.75
26185;PMS7003;20067;48.764;9.176;2024-01-11T13:40:42;56.25;48.50;29.25
26185;PMS7003;20067;48.764;9.176;2024-01-11T13:43:08;66.00;59.00;32.50
26185;PMS7003;20067;48.764;9.176;2024-01-11T13:45:34;75.25;59.50;37.00